Etusivu
METAR-TAF:

METAR-TAF

Lentoasemat :

Bernin lentoasema

Bern, Sveitsi

Leveyspiiri: 46-55N, Pituuspiiri: 007-30E, korkeus merenpinnasta: 505 m

Tämänhetkinen sää

Tämä raportti tehtiin 34 minuuttia sitten, kello 15.50 UTC
Tuuli 7 kn luoteesta
Lämpötila 12°C
Kosteus 47%
Ilmanpaine 1028 hPa
Näkyvyys 10 km tai enemmän
ei pilviä alle 1500 m:ssä eikä cumulonimbus-pilviä

METAR: LSZB 211550Z 32007KT CAVOK 12/01 Q1028 NOSIG

Aika: 17:24 (16:24 UTC)

Sääennuste

Tämä raportti tehtiin 1 tunti ja 59 minuuttia sitten, kello 14.25 UTC
Ennuste voimassa 21. päivästä klo 15 UTC - 21. päivään klo 24 UTC
Tuuli 3 kn eri suunnista
Näkyvyys 10 km tai enemmän
ei pilviä alle 1500 m:ssä eikä cumulonimbus-pilviä

TAF: LSZB 211425Z 2115/2124 VRB03KT CAVOK

Säähavainnot ja -ennusteet yli 4000 lentoasemalta (METAR- ja TAF-raportit).

Käytössä olevat sääasemat on merkitty karttaan keltaisilla ja punaisilla pisteillä.

Aseta hiiri pisteen päälle nähdäksesi sääaseman nimen.

Klikkaa sitten nähdäksesi säähavainnot ja -ennusteet.

Kartan vaihtaminen: klikkaa mustalla rastilla varustettuja vihreitä pisteitä, niin voit zoomata sisään; viivalla varustettua vihreää pistettä, niin voit zoomata ulos tai vihreitä nuolia, niin pääset viereisille kartoille.


METAR-TAF: